sensor_id;sensor_type;location;lat;lon;timestamp;P1;durP1;ratioP1;P2;durP2;ratioP2
77625;SDS011;66794;43.764;10.436;2023-08-30T00:00:48;3.08;;;0.90;;
77625;SDS011;66794;43.764;10.436;2023-08-30T00:03:34;2.53;;;0.77;;
77625;SDS011;66794;43.764;10.436;2023-08-30T00:06:19;4.80;;;1.13;;
77625;SDS011;66794;43.764;10.436;2023-08-30T00:09:05;4.30;;;0.85;;
77625;SDS011;66794;43.764;10.436;2023-08-30T00:11:51;4.30;;;0.77;;
77625;SDS011;66794;43.764;10.436;2023-08-30T00:14:37;2.50;;;1.10;;
77625;SDS011;66794;43.764;10.436;2023-08-30T00:17:22;5.70;;;1.42;;
77625;SDS011;66794;43.764;10.436;2023-08-30T00:20:08;5.13;;;2.30;;
77625;SDS011;66794;43.764;10.436;2023-08-30T00:22:54;5.53;;;1.73;;
77625;SDS011;66794;43.764;10.436;2023-08-30T00:25:40;4.85;;;1.52;;
77625;SDS011;66794;43.764;10.436;2023-08-30T00:28:26;7.10;;;2.00;;
77625;SDS011;66794;43.764;10.436;2023-08-30T00:31:11;5.07;;;1.67;;
77625;SDS011;66794;43.764;10.436;2023-08-30T00:33:57;5.50;;;1.70;;
77625;SDS011;66794;43.764;10.436;2023-08-30T00:36:43;7.95;;;1.48;;
77625;SDS011;66794;43.764;10.436;2023-08-30T00:39:29;3.75;;;1.40;;
77625;SDS011;66794;43.764;10.436;2023-08-30T00:42:14;3.80;;;1.35;;
77625;SDS011;66794;43.764;10.436;2023-08-30T00:45:00;7.68;;;1.30;;
77625;SDS011;66794;43.764;10.436;2023-08-30T00:47:46;3.90;;;1.38;;
77625;SDS011;66794;43.764;10.436;2023-08-30T00:50:32;6.85;;;1.38;;
77625;SDS011;66794;43.764;10.436;2023-08-30T00:53:19;7.45;;;1.13;;
77625;SDS011;66794;43.764;10.436;2023-08-30T00:56:05;6.40;;;1.45;;
77625;SDS011;66794;43.764;10.436;2023-08-30T00:58:51;6.32;;;1.30;;
77625;SDS011;66794;43.764;10.436;2023-08-30T01:01:37;3.40;;;1.23;;
77625;SDS011;66794;43.764;10.436;2023-08-30T01:04:24;6.97;;;1.90;;
77625;SDS011;66794;43.764;10.436;2023-08-30T01:07:10;6.60;;;1.48;;
77625;SDS011;66794;43.764;10.436;2023-08-30T01:09:56;4.85;;;1.35;;
77625;SDS011;66794;43.764;10.436;2023-08-30T01:12:43;4.75;;;2.20;;
77625;SDS011;66794;43.764;10.436;2023-08-30T01:15:33;7.88;;;2.60;;
77625;SDS011;66794;43.764;10.436;2023-08-30T01:18:20;8.93;;;2.60;;
77625;SDS011;66794;43.764;10.436;2023-08-30T01:21:12;4.95;;;2.25;;
77625;SDS011;66794;43.764;10.436;2023-08-30T01:24:07;9.93;;;2.45;;
77625;SDS011;66794;43.764;10.436;2023-08-30T01:27:11;9.52;;;2.60;;
77625;SDS011;66794;43.764;10.436;2023-08-30T01:29:59;10.23;;;2.10;;
77625;SDS011;66794;43.764;10.436;2023-08-30T01:32:45;8.32;;;1.95;;
77625;SDS011;66794;43.764;10.436;2023-08-30T01:35:34;9.52;;;2.20;;
77625;SDS011;66794;43.764;10.436;2023-08-30T01:38:22;5.97;;;1.80;;
77625;SDS011;66794;43.764;10.436;2023-08-30T01:41:10;5.68;;;1.67;;
77625;SDS011;66794;43.764;10.436;2023-08-30T01:43:56;8.50;;;1.70;;
77625;SDS011;66794;43.764;10.436;2023-08-30T01:46:44;5.85;;;1.40;;
77625;SDS011;66794;43.764;10.436;2023-08-30T01:49:31;5.65;;;1.30;;
77625;SDS011;66794;43.764;10.436;2023-08-30T01:52:17;7.90;;;2.17;;
77625;SDS011;66794;43.764;10.436;2023-08-30T01:55:05;6.25;;;2.00;;
77625;SDS011;66794;43.764;10.436;2023-08-30T01:57:53;8.52;;;1.70;;
77625;SDS011;66794;43.764;10.436;2023-08-30T02:00:39;5.03;;;1.30;;
77625;SDS011;66794;43.764;10.436;2023-08-30T02:03:25;10.10;;;1.70;;
77625;SDS011;66794;43.764;10.436;2023-08-30T02:06:13;8.52;;;1.55;;
77625;SDS011;66794;43.764;10.436;2023-08-30T02:09:04;4.88;;;1.40;;
77625;SDS011;66794;43.764;10.436;2023-08-30T02:12:04;8.32;;;2.25;;
77625;SDS011;66794;43.764;10.436;2023-08-30T02:14:55;7.50;;;2.40;;
77625;SDS011;66794;43.764;10.436;2023-08-30T02:17:42;5.97;;;2.17;;
77625;SDS011;66794;43.764;10.436;2023-08-30T02:20:29;5.88;;;2.53;;
77625;SDS011;66794;43.764;10.436;2023-08-30T02:23:15;6.00;;;2.20;;
77625;SDS011;66794;43.764;10.436;2023-08-30T02:26:01;3.53;;;1.92;;
77625;SDS011;66794;43.764;10.436;2023-08-30T02:28:48;10.80;;;2.60;;
77625;SDS011;66794;43.764;10.436;2023-08-30T02:31:34;5.45;;;2.28;;
77625;SDS011;66794;43.764;10.436;2023-08-30T02:34:19;5.50;;;3.20;;
77625;SDS011;66794;43.764;10.436;2023-08-30T02:37:05;8.02;;;3.45;;
77625;SDS011;66794;43.764;10.436;2023-08-30T02:39:51;7.18;;;3.42;;
77625;SDS011;66794;43.764;10.436;2023-08-30T02:42:37;7.63;;;3.78;;
77625;SDS011;66794;43.764;10.436;2023-08-30T02:45:22;6.95;;;3.40;;
77625;SDS011;66794;43.764;10.436;2023-08-30T02:48:08;8.38;;;3.40;;
77625;SDS011;66794;43.764;10.436;2023-08-30T02:50:54;6.43;;;3.17;;
77625;SDS011;66794;43.764;10.436;2023-08-30T02:53:40;7.90;;;3.38;;
77625;SDS011;66794;43.764;10.436;2023-08-30T02:56:25;7.13;;;3.67;;
77625;SDS011;66794;43.764;10.436;2023-08-30T02:59:11;6.50;;;3.08;;
77625;SDS011;66794;43.764;10.436;2023-08-30T03:01:57;7.18;;;3.30;;
77625;SDS011;66794;43.764;10.436;2023-08-30T03:04:43;9.65;;;3.95;;
77625;SDS011;66794;43.764;10.436;2023-08-30T03:07:29;7.57;;;3.83;;
77625;SDS011;66794;43.764;10.436;2023-08-30T03:10:15;8.98;;;4.65;;
77625;SDS011;66794;43.764;10.436;2023-08-30T03:13:00;8.70;;;3.95;;
77625;SDS011;66794;43.764;10.436;2023-08-30T03:15:46;7.95;;;4.57;;
77625;SDS011;66794;43.764;10.436;2023-08-30T03:18:32;9.63;;;4.60;;
77625;SDS011;66794;43.764;10.436;2023-08-30T03:21:18;11.43;;;4.00;;
77625;SDS011;66794;43.764;10.436;2023-08-30T03:24:03;11.27;;;4.22;;
77625;SDS011;66794;43.764;10.436;2023-08-30T03:26:50;10.65;;;3.60;;
77625;SDS011;66794;43.764;10.436;2023-08-30T03:29:35;10.40;;;3.58;;
77625;SDS011;66794;43.764;10.436;2023-08-30T03:32:21;9.52;;;2.75;;
77625;SDS011;66794;43.764;10.436;2023-08-30T03:35:07;7.78;;;2.10;;
77625;SDS011;66794;43.764;10.436;2023-08-30T03:37:53;6.50;;;1.98;;
77625;SDS011;66794;43.764;10.436;2023-08-30T03:40:39;8.80;;;2.05;;
77625;SDS011;66794;43.764;10.436;2023-08-30T03:43:25;5.13;;;2.00;;
77625;SDS011;66794;43.764;10.436;2023-08-30T03:46:11;5.65;;;1.80;;
77625;SDS011;66794;43.764;10.436;2023-08-30T03:48:57;6.38;;;1.80;;
77625;SDS011;66794;43.764;10.436;2023-08-30T03:51:43;8.07;;;2.17;;
77625;SDS011;66794;43.764;10.436;2023-08-30T03:54:29;5.43;;;2.00;;
77625;SDS011;66794;43.764;10.436;2023-08-30T03:57:14;9.57;;;2.30;;
77625;SDS011;66794;43.764;10.436;2023-08-30T04:00:00;6.30;;;2.20;;
77625;SDS011;66794;43.764;10.436;2023-08-30T04:02:46;5.65;;;2.00;;
77625;SDS011;66794;43.764;10.436;2023-08-30T04:05:35;8.95;;;2.50;;
77625;SDS011;66794;43.764;10.436;2023-08-30T04:08:22;6.82;;;2.33;;
77625;SDS011;66794;43.764;10.436;2023-08-30T04:11:07;6.28;;;2.30;;
77625;SDS011;66794;43.764;10.436;2023-08-30T04:13:53;3.88;;;2.13;;
77625;SDS011;66794;43.764;10.436;2023-08-30T04:16:39;6.55;;;2.50;;
77625;SDS011;66794;43.764;10.436;2023-08-30T04:19:24;5.90;;;2.00;;
77625;SDS011;66794;43.764;10.436;2023-08-30T04:22:10;8.90;;;2.70;;
77625;SDS011;66794;43.764;10.436;2023-08-30T04:24:56;6.97;;;2.20;;
77625;SDS011;66794;43.764;10.436;2023-08-30T04:27:42;9.45;;;2.15;;
77625;SDS011;66794;43.764;10.436;2023-08-30T04:30:27;6.28;;;2.30;;
77625;SDS011;66794;43.764;10.436;2023-08-30T04:33:13;4.80;;;2.10;;
77625;SDS011;66794;43.764;10.436;2023-08-30T04:35:59;7.78;;;2.28;;
77625;SDS011;66794;43.764;10.436;2023-08-30T04:38:46;6.55;;;2.50;;
77625;SDS011;66794;43.764;10.436;2023-08-30T04:41:32;8.35;;;2.72;;
77625;SDS011;66794;43.764;10.436;2023-08-30T04:44:19;7.07;;;2.50;;
77625;SDS011;66794;43.764;10.436;2023-08-30T04:47:09;9.38;;;2.67;;
77625;SDS011;66794;43.764;10.436;2023-08-30T04:49:55;7.82;;;2.85;;
77625;SDS011;66794;43.764;10.436;2023-08-30T04:52:41;4.70;;;2.50;;
77625;SDS011;66794;43.764;10.436;2023-08-30T04:55:31;5.78;;;2.70;;
77625;SDS011;66794;43.764;10.436;2023-08-30T04:58:16;6.35;;;2.92;;
77625;SDS011;66794;43.764;10.436;2023-08-30T05:01:02;7.10;;;2.58;;
77625;SDS011;66794;43.764;10.436;2023-08-30T05:03:48;7.53;;;2.80;;
77625;SDS011;66794;43.764;10.436;2023-08-30T05:06:33;8.52;;;3.30;;
77625;SDS011;66794;43.764;10.436;2023-08-30T05:09:19;10.52;;;3.28;;
77625;SDS011;66794;43.764;10.436;2023-08-30T05:12:08;5.28;;;3.30;;
77625;SDS011;66794;43.764;10.436;2023-08-30T05:14:54;7.30;;;3.55;;
77625;SDS011;66794;43.764;10.436;2023-08-30T05:17:39;9.82;;;3.88;;
77625;SDS011;66794;43.764;10.436;2023-08-30T05:20:25;4.82;;;3.20;;
77625;SDS011;66794;43.764;10.436;2023-08-30T05:23:11;9.70;;;3.45;;
77625;SDS011;66794;43.764;10.436;2023-08-30T05:25:57;9.55;;;3.60;;
77625;SDS011;66794;43.764;10.436;2023-08-30T05:28:43;8.45;;;3.20;;
77625;SDS011;66794;43.764;10.436;2023-08-30T05:31:28;9.45;;;3.22;;
77625;SDS011;66794;43.764;10.436;2023-08-30T05:34:14;7.95;;;3.22;;
77625;SDS011;66794;43.764;10.436;2023-08-30T05:37:00;5.35;;;2.78;;
77625;SDS011;66794;43.764;10.436;2023-08-30T05:39:46;7.18;;;2.90;;
77625;SDS011;66794;43.764;10.436;2023-08-30T05:42:32;7.50;;;2.65;;
77625;SDS011;66794;43.764;10.436;2023-08-30T05:45:18;9.65;;;2.80;;
77625;SDS011;66794;43.764;10.436;2023-08-30T05:48:03;7.20;;;3.50;;
77625;SDS011;66794;43.764;10.436;2023-08-30T05:50:50;4.90;;;2.63;;
77625;SDS011;66794;43.764;10.436;2023-08-30T05:53:35;3.75;;;2.53;;
77625;SDS011;66794;43.764;10.436;2023-08-30T05:56:21;9.88;;;2.78;;
77625;SDS011;66794;43.764;10.436;2023-08-30T05:59:07;6.15;;;2.58;;
77625;SDS011;66794;43.764;10.436;2023-08-30T06:01:53;7.25;;;2.83;;
77625;SDS011;66794;43.764;10.436;2023-08-30T06:04:39;5.22;;;2.70;;
77625;SDS011;66794;43.764;10.436;2023-08-30T06:07:24;8.95;;;3.75;;
77625;SDS011;66794;43.764;10.436;2023-08-30T06:10:10;12.32;;;4.35;;
77625;SDS011;66794;43.764;10.436;2023-08-30T06:12:56;6.72;;;4.35;;
77625;SDS011;66794;43.764;10.436;2023-08-30T06:15:41;8.60;;;4.07;;
77625;SDS011;66794;43.764;10.436;2023-08-30T06:18:30;9.15;;;4.20;;
77625;SDS011;66794;43.764;10.436;2023-08-30T06:21:20;9.30;;;4.28;;
77625;SDS011;66794;43.764;10.436;2023-08-30T06:24:06;8.85;;;3.78;;
77625;SDS011;66794;43.764;10.436;2023-08-30T06:26:52;6.97;;;3.35;;
77625;SDS011;66794;43.764;10.436;2023-08-30T06:29:38;6.90;;;2.90;;
77625;SDS011;66794;43.764;10.436;2023-08-30T06:32:24;5.40;;;3.65;;
77625;SDS011;66794;43.764;10.436;2023-08-30T06:35:10;11.30;;;3.60;;
77625;SDS011;66794;43.764;10.436;2023-08-30T06:37:56;10.07;;;3.25;;
77625;SDS011;66794;43.764;10.436;2023-08-30T06:40:45;8.13;;;3.40;;
77625;SDS011;66794;43.764;10.436;2023-08-30T06:43:31;6.88;;;3.42;;
77625;SDS011;66794;43.764;10.436;2023-08-30T06:46:17;7.20;;;2.90;;
77625;SDS011;66794;43.764;10.436;2023-08-30T06:49:03;6.85;;;2.22;;
77625;SDS011;66794;43.764;10.436;2023-08-30T06:51:49;8.13;;;3.03;;
77625;SDS011;66794;43.764;10.436;2023-08-30T06:54:35;6.70;;;2.42;;
77625;SDS011;66794;43.764;10.436;2023-08-30T06:57:21;6.35;;;2.20;;
77625;SDS011;66794;43.764;10.436;2023-08-30T07:00:07;4.68;;;2.38;;
77625;SDS011;66794;43.764;10.436;2023-08-30T07:02:53;5.22;;;2.65;;
77625;SDS011;66794;43.764;10.436;2023-08-30T07:05:39;5.40;;;2.08;;
77625;SDS011;66794;43.764;10.436;2023-08-30T07:08:25;5.63;;;2.30;;
77625;SDS011;66794;43.764;10.436;2023-08-30T07:11:12;6.32;;;2.30;;
77625;SDS011;66794;43.764;10.436;2023-08-30T07:13:57;5.63;;;2.47;;
77625;SDS011;66794;43.764;10.436;2023-08-30T07:16:43;10.18;;;5.07;;
77625;SDS011;66794;43.764;10.436;2023-08-30T07:19:30;8.75;;;4.35;;
77625;SDS011;66794;43.764;10.436;2023-08-30T07:22:15;6.20;;;3.42;;
77625;SDS011;66794;43.764;10.436;2023-08-30T07:25:01;5.57;;;2.83;;
77625;SDS011;66794;43.764;10.436;2023-08-30T07:27:48;8.45;;;3.40;;
77625;SDS011;66794;43.764;10.436;2023-08-30T07:30:34;8.10;;;2.55;;
77625;SDS011;66794;43.764;10.436;2023-08-30T07:33:23;5.30;;;2.63;;
77625;SDS011;66794;43.764;10.436;2023-08-30T07:36:09;8.05;;;2.40;;
77625;SDS011;66794;43.764;10.436;2023-08-30T07:38:54;6.05;;;2.90;;
77625;SDS011;66794;43.764;10.436;2023-08-30T07:41:40;5.55;;;1.85;;
77625;SDS011;66794;43.764;10.436;2023-08-30T07:44:26;12.20;;;4.00;;
77625;SDS011;66794;43.764;10.436;2023-08-30T07:47:12;3.72;;;1.75;;
77625;SDS011;66794;43.764;10.436;2023-08-30T07:49:58;3.80;;;2.00;;
77625;SDS011;66794;43.764;10.436;2023-08-30T07:52:44;5.32;;;2.20;;
77625;SDS011;66794;43.764;10.436;2023-08-30T07:55:30;7.15;;;2.40;;
77625;SDS011;66794;43.764;10.436;2023-08-30T07:58:19;9.27;;;2.33;;
77625;SDS011;66794;43.764;10.436;2023-08-30T08:01:05;15.65;;;2.05;;
77625;SDS011;66794;43.764;10.436;2023-08-30T08:03:50;6.75;;;2.08;;
77625;SDS011;66794;43.764;10.436;2023-08-30T08:06:36;6.88;;;1.75;;
77625;SDS011;66794;43.764;10.436;2023-08-30T08:09:22;6.88;;;1.77;;
77625;SDS011;66794;43.764;10.436;2023-08-30T08:12:08;6.50;;;1.80;;
77625;SDS011;66794;43.764;10.436;2023-08-30T08:14:53;6.18;;;1.67;;
77625;SDS011;66794;43.764;10.436;2023-08-30T08:17:39;8.00;;;1.83;;
77625;SDS011;66794;43.764;10.436;2023-08-30T08:20:25;7.28;;;1.80;;
77625;SDS011;66794;43.764;10.436;2023-08-30T08:23:11;8.18;;;1.55;;
77625;SDS011;66794;43.764;10.436;2023-08-30T08:25:58;7.95;;;2.00;;
77625;SDS011;66794;43.764;10.436;2023-08-30T08:28:44;6.68;;;1.90;;
77625;SDS011;66794;43.764;10.436;2023-08-30T08:31:30;6.63;;;1.75;;
77625;SDS011;66794;43.764;10.436;2023-08-30T08:34:16;6.82;;;1.63;;
77625;SDS011;66794;43.764;10.436;2023-08-30T08:37:02;9.40;;;1.90;;
77625;SDS011;66794;43.764;10.436;2023-08-30T08:39:48;7.55;;;1.42;;
77625;SDS011;66794;43.764;10.436;2023-08-30T08:42:35;8.13;;;1.52;;
77625;SDS011;66794;43.764;10.436;2023-08-30T08:45:22;4.65;;;1.52;;
77625;SDS011;66794;43.764;10.436;2023-08-30T08:48:08;5.95;;;1.75;;
77625;SDS011;66794;43.764;10.436;2023-08-30T08:50:55;8.52;;;1.60;;
77625;SDS011;66794;43.764;10.436;2023-08-30T08:53:42;6.38;;;1.85;;
77625;SDS011;66794;43.764;10.436;2023-08-30T08:56:29;9.05;;;1.42;;
77625;SDS011;66794;43.764;10.436;2023-08-30T08:59:16;7.40;;;1.45;;
77625;SDS011;66794;43.764;10.436;2023-08-30T09:02:01;7.20;;;1.55;;
77625;SDS011;66794;43.764;10.436;2023-08-30T09:04:47;8.15;;;1.65;;
77625;SDS011;66794;43.764;10.436;2023-08-30T09:07:33;5.57;;;1.35;;
77625;SDS011;66794;43.764;10.436;2023-08-30T09:10:21;6.38;;;1.40;;
77625;SDS011;66794;43.764;10.436;2023-08-30T09:13:07;3.63;;;1.30;;
77625;SDS011;66794;43.764;10.436;2023-08-30T09:15:52;4.05;;;1.25;;
77625;SDS011;66794;43.764;10.436;2023-08-30T09:18:38;7.80;;;1.40;;
77625;SDS011;66794;43.764;10.436;2023-08-30T09:21:24;6.47;;;1.30;;
77625;SDS011;66794;43.764;10.436;2023-08-30T09:24:10;4.07;;;1.10;;
77625;SDS011;66794;43.764;10.436;2023-08-30T09:26:55;7.55;;;1.70;;
77625;SDS011;66794;43.764;10.436;2023-08-30T09:29:41;5.82;;;1.40;;
77625;SDS011;66794;43.764;10.436;2023-08-30T09:32:29;6.38;;;1.73;;
77625;SDS011;66794;43.764;10.436;2023-08-30T09:35:15;9.70;;;1.42;;
77625;SDS011;66794;43.764;10.436;2023-08-30T09:38:00;11.23;;;1.77;;
77625;SDS011;66794;43.764;10.436;2023-08-30T09:40:46;7.60;;;1.48;;
77625;SDS011;66794;43.764;10.436;2023-08-30T09:43:32;10.68;;;1.58;;
77625;SDS011;66794;43.764;10.436;2023-08-30T09:46:21;9.70;;;1.63;;
77625;SDS011;66794;43.764;10.436;2023-08-30T09:49:09;8.00;;;1.55;;
77625;SDS011;66794;43.764;10.436;2023-08-30T09:51:55;7.28;;;1.73;;
77625;SDS011;66794;43.764;10.436;2023-08-30T09:54:45;6.90;;;1.60;;
77625;SDS011;66794;43.764;10.436;2023-08-30T09:57:31;8.15;;;1.98;;
77625;SDS011;66794;43.764;10.436;2023-08-30T10:00:17;6.75;;;1.88;;
77625;SDS011;66794;43.764;10.436;2023-08-30T10:03:03;6.15;;;1.40;;
77625;SDS011;66794;43.764;10.436;2023-08-30T10:05:50;5.15;;;1.60;;
77625;SDS011;66794;43.764;10.436;2023-08-30T10:08:37;8.10;;;1.90;;
77625;SDS011;66794;43.764;10.436;2023-08-30T10:11:25;5.80;;;1.33;;
77625;SDS011;66794;43.764;10.436;2023-08-30T10:14:14;9.43;;;1.52;;
77625;SDS011;66794;43.764;10.436;2023-08-30T10:17:03;9.27;;;1.70;;
77625;SDS011;66794;43.764;10.436;2023-08-30T10:19:50;8.15;;;1.83;;
77625;SDS011;66794;43.764;10.436;2023-08-30T10:22:39;5.43;;;1.40;;
77625;SDS011;66794;43.764;10.436;2023-08-30T10:25:26;9.60;;;1.60;;
77625;SDS011;66794;43.764;10.436;2023-08-30T10:28:14;8.10;;;2.55;;
77625;SDS011;66794;43.764;10.436;2023-08-30T10:31:02;7.63;;;2.40;;
77625;SDS011;66794;43.764;10.436;2023-08-30T10:33:49;9.95;;;2.00;;
77625;SDS011;66794;43.764;10.436;2023-08-30T10:36:35;7.03;;;1.30;;
77625;SDS011;66794;43.764;10.436;2023-08-30T10:39:26;8.02;;;2.33;;
77625;SDS011;66794;43.764;10.436;2023-08-30T10:42:21;5.60;;;1.27;;
77625;SDS011;66794;43.764;10.436;2023-08-30T10:45:09;3.75;;;1.00;;
77625;SDS011;66794;43.764;10.436;2023-08-30T10:47:55;4.45;;;1.95;;
77625;SDS011;66794;43.764;10.436;2023-08-30T10:50:42;4.82;;;1.60;;
77625;SDS011;66794;43.764;10.436;2023-08-30T10:53:29;3.95;;;1.20;;
77625;SDS011;66794;43.764;10.436;2023-08-30T10:56:15;7.88;;;1.45;;
77625;SDS011;66794;43.764;10.436;2023-08-30T10:59:02;7.90;;;2.00;;
77625;SDS011;66794;43.764;10.436;2023-08-30T11:01:49;9.35;;;2.05;;
77625;SDS011;66794;43.764;10.436;2023-08-30T11:04:39;6.90;;;1.83;;
77625;SDS011;66794;43.764;10.436;2023-08-30T11:07:26;6.85;;;1.63;;
77625;SDS011;66794;43.764;10.436;2023-08-30T11:10:12;5.00;;;1.55;;
77625;SDS011;66794;43.764;10.436;2023-08-30T11:12:59;4.35;;;1.45;;
77625;SDS011;66794;43.764;10.436;2023-08-30T11:15:46;6.82;;;1.30;;
77625;SDS011;66794;43.764;10.436;2023-08-30T11:18:38;4.88;;;1.30;;
77625;SDS011;66794;43.764;10.436;2023-08-30T11:21:25;5.38;;;1.38;;
77625;SDS011;66794;43.764;10.436;2023-08-30T11:24:10;3.80;;;1.58;;
77625;SDS011;66794;43.764;10.436;2023-08-30T11:26:57;4.28;;;1.45;;
77625;SDS011;66794;43.764;10.436;2023-08-30T11:29:43;5.30;;;1.65;;
77625;SDS011;66794;43.764;10.436;2023-08-30T11:32:31;5.80;;;1.55;;
77625;SDS011;66794;43.764;10.436;2023-08-30T11:35:18;6.03;;;1.40;;
77625;SDS011;66794;43.764;10.436;2023-08-30T11:38:07;3.58;;;1.10;;
77625;SDS011;66794;43.764;10.436;2023-08-30T11:40:52;6.05;;;1.35;;
77625;SDS011;66794;43.764;10.436;2023-08-30T11:43:38;4.47;;;1.30;;
77625;SDS011;66794;43.764;10.436;2023-08-30T11:46:25;3.17;;;1.23;;
77625;SDS011;66794;43.764;10.436;2023-08-30T11:49:11;5.88;;;1.30;;
77625;SDS011;66794;43.764;10.436;2023-08-30T11:51:57;5.65;;;1.40;;
77625;SDS011;66794;43.764;10.436;2023-08-30T11:54:44;4.85;;;0.98;;
77625;SDS011;66794;43.764;10.436;2023-08-30T11:57:32;4.75;;;1.33;;
77625;SDS011;66794;43.764;10.436;2023-08-30T12:00:20;2.88;;;0.90;;
77625;SDS011;66794;43.764;10.436;2023-08-30T12:03:06;5.70;;;1.10;;
77625;SDS011;66794;43.764;10.436;2023-08-30T12:05:52;6.28;;;1.05;;
77625;SDS011;66794;43.764;10.436;2023-08-30T12:08:37;2.25;;;0.68;;
77625;SDS011;66794;43.764;10.436;2023-08-30T12:11:23;4.43;;;0.85;;
77625;SDS011;66794;43.764;10.436;2023-08-30T12:14:09;3.42;;;0.80;;
77625;SDS011;66794;43.764;10.436;2023-08-30T12:16:55;2.80;;;0.85;;
77625;SDS011;66794;43.764;10.436;2023-08-30T12:19:45;4.22;;;0.90;;
77625;SDS011;66794;43.764;10.436;2023-08-30T12:22:40;2.50;;;0.73;;
77625;SDS011;66794;43.764;10.436;2023-08-30T12:25:26;3.58;;;0.77;;
77625;SDS011;66794;43.764;10.436;2023-08-30T12:28:12;3.78;;;0.90;;
77625;SDS011;66794;43.764;10.436;2023-08-30T12:30:58;7.65;;;1.30;;
77625;SDS011;66794;43.764;10.436;2023-08-30T12:33:44;4.97;;;1.20;;
77625;SDS011;66794;43.764;10.436;2023-08-30T12:36:29;8.80;;;2.30;;
77625;SDS011;66794;43.764;10.436;2023-08-30T12:39:15;6.15;;;1.45;;
77625;SDS011;66794;43.764;10.436;2023-08-30T12:42:02;9.77;;;1.75;;
77625;SDS011;66794;43.764;10.436;2023-08-30T12:44:48;9.52;;;2.17;;
77625;SDS011;66794;43.764;10.436;2023-08-30T12:47:34;11.55;;;2.22;;
77625;SDS011;66794;43.764;10.436;2023-08-30T12:50:19;6.55;;;1.95;;
77625;SDS011;66794;43.764;10.436;2023-08-30T12:53:06;8.35;;;1.83;;
77625;SDS011;66794;43.764;10.436;2023-08-30T12:55:52;9.50;;;2.35;;
77625;SDS011;66794;43.764;10.436;2023-08-30T12:58:37;7.22;;;1.83;;
77625;SDS011;66794;43.764;10.436;2023-08-30T13:01:23;11.40;;;2.00;;
77625;SDS011;66794;43.764;10.436;2023-08-30T13:04:09;9.25;;;2.13;;
77625;SDS011;66794;43.764;10.436;2023-08-30T13:06:55;12.75;;;2.42;;
77625;SDS011;66794;43.764;10.436;2023-08-30T13:09:41;6.22;;;1.70;;
77625;SDS011;66794;43.764;10.436;2023-08-30T13:12:27;5.28;;;1.60;;
77625;SDS011;66794;43.764;10.436;2023-08-30T13:15:13;4.72;;;1.48;;
77625;SDS011;66794;43.764;10.436;2023-08-30T13:17:58;9.38;;;1.52;;
77625;SDS011;66794;43.764;10.436;2023-08-30T13:20:44;5.65;;;1.38;;
77625;SDS011;66794;43.764;10.436;2023-08-30T13:23:30;7.63;;;1.73;;
77625;SDS011;66794;43.764;10.436;2023-08-30T13:26:16;7.25;;;1.77;;
77625;SDS011;66794;43.764;10.436;2023-08-30T13:29:02;11.32;;;2.10;;
77625;SDS011;66794;43.764;10.436;2023-08-30T13:31:48;6.80;;;1.60;;
77625;SDS011;66794;43.764;10.436;2023-08-30T13:34:34;8.15;;;1.73;;
77625;SDS011;66794;43.764;10.436;2023-08-30T13:37:20;5.70;;;1.45;;
77625;SDS011;66794;43.764;10.436;2023-08-30T13:40:05;7.65;;;1.58;;
77625;SDS011;66794;43.764;10.436;2023-08-30T13:42:52;11.52;;;1.77;;
77625;SDS011;66794;43.764;10.436;2023-08-30T13:45:38;5.63;;;1.83;;
77625;SDS011;66794;43.764;10.436;2023-08-30T13:48:23;8.77;;;1.92;;
77625;SDS011;66794;43.764;10.436;2023-08-30T13:51:09;6.03;;;1.50;;
77625;SDS011;66794;43.764;10.436;2023-08-30T13:53:55;9.27;;;2.00;;
77625;SDS011;66794;43.764;10.436;2023-08-30T13:56:41;7.45;;;1.65;;
77625;SDS011;66794;43.764;10.436;2023-08-30T13:59:27;7.93;;;2.13;;
77625;SDS011;66794;43.764;10.436;2023-08-30T14:02:13;5.88;;;1.63;;
77625;SDS011;66794;43.764;10.436;2023-08-30T14:04:59;9.63;;;2.28;;
77625;SDS011;66794;43.764;10.436;2023-08-30T14:07:45;9.68;;;1.83;;
77625;SDS011;66794;43.764;10.436;2023-08-30T14:10:31;5.53;;;1.50;;
77625;SDS011;66794;43.764;10.436;2023-08-30T14:13:16;6.38;;;1.65;;
77625;SDS011;66794;43.764;10.436;2023-08-30T14:16:02;6.75;;;1.77;;
77625;SDS011;66794;43.764;10.436;2023-08-30T14:18:51;4.25;;;0.80;;
77625;SDS011;66794;43.764;10.436;2023-08-30T14:21:37;2.95;;;1.02;;
77625;SDS011;66794;43.764;10.436;2023-08-30T14:24:23;5.32;;;1.67;;
77625;SDS011;66794;43.764;10.436;2023-08-30T14:27:08;9.20;;;2.00;;
77625;SDS011;66794;43.764;10.436;2023-08-30T14:29:54;21.98;;;4.50;;
77625;SDS011;66794;43.764;10.436;2023-08-30T14:32:40;14.13;;;3.17;;
77625;SDS011;66794;43.764;10.436;2023-08-30T14:35:26;26.17;;;5.43;;
77625;SDS011;66794;43.764;10.436;2023-08-30T14:38:12;16.88;;;4.35;;
77625;SDS011;66794;43.764;10.436;2023-08-30T14:40:59;25.63;;;5.28;;
77625;SDS011;66794;43.764;10.436;2023-08-30T14:43:45;23.05;;;5.70;;
77625;SDS011;66794;43.764;10.436;2023-08-30T14:46:31;21.13;;;5.68;;
77625;SDS011;66794;43.764;10.436;2023-08-30T14:49:17;23.20;;;6.10;;
77625;SDS011;66794;43.764;10.436;2023-08-30T14:52:02;16.20;;;5.53;;
77625;SDS011;66794;43.764;10.436;2023-08-30T14:54:48;27.02;;;8.80;;
77625;SDS011;66794;43.764;10.436;2023-08-30T14:57:34;30.85;;;7.65;;
77625;SDS011;66794;43.764;10.436;2023-08-30T15:00:20;21.77;;;5.85;;
77625;SDS011;66794;43.764;10.436;2023-08-30T15:03:05;23.20;;;6.10;;
77625;SDS011;66794;43.764;10.436;2023-08-30T15:05:54;21.27;;;5.47;;
77625;SDS011;66794;43.764;10.436;2023-08-30T15:08:41;16.65;;;4.22;;
77625;SDS011;66794;43.764;10.436;2023-08-30T15:11:27;10.43;;;3.50;;
77625;SDS011;66794;43.764;10.436;2023-08-30T15:14:13;10.63;;;4.00;;
77625;SDS011;66794;43.764;10.436;2023-08-30T15:16:59;14.60;;;4.85;;
77625;SDS011;66794;43.764;10.436;2023-08-30T15:19:45;13.95;;;4.15;;
77625;SDS011;66794;43.764;10.436;2023-08-30T15:22:30;14.43;;;5.10;;
77625;SDS011;66794;43.764;10.436;2023-08-30T15:25:18;16.10;;;5.50;;
77625;SDS011;66794;43.764;10.436;2023-08-30T15:28:04;14.35;;;4.88;;
77625;SDS011;66794;43.764;10.436;2023-08-30T15:30:50;14.40;;;4.45;;
77625;SDS011;66794;43.764;10.436;2023-08-30T15:33:36;10.57;;;3.25;;
77625;SDS011;66794;43.764;10.436;2023-08-30T15:36:22;6.80;;;3.00;;
77625;SDS011;66794;43.764;10.436;2023-08-30T15:39:07;12.85;;;3.67;;
77625;SDS011;66794;43.764;10.436;2023-08-30T15:41:54;13.70;;;3.90;;
77625;SDS011;66794;43.764;10.436;2023-08-30T15:44:39;9.20;;;3.03;;
77625;SDS011;66794;43.764;10.436;2023-08-30T15:47:25;12.07;;;3.67;;
77625;SDS011;66794;43.764;10.436;2023-08-30T15:50:12;10.32;;;3.08;;
77625;SDS011;66794;43.764;10.436;2023-08-30T15:52:57;10.48;;;3.17;;
77625;SDS011;66794;43.764;10.436;2023-08-30T15:55:43;7.80;;;2.78;;
77625;SDS011;66794;43.764;10.436;2023-08-30T15:58:29;9.77;;;3.10;;
77625;SDS011;66794;43.764;10.436;2023-08-30T16:01:14;11.27;;;2.80;;
77625;SDS011;66794;43.764;10.436;2023-08-30T16:04:01;11.52;;;3.03;;
77625;SDS011;66794;43.764;10.436;2023-08-30T16:06:47;11.00;;;3.55;;
77625;SDS011;66794;43.764;10.436;2023-08-30T16:09:33;6.60;;;2.67;;
77625;SDS011;66794;43.764;10.436;2023-08-30T16:12:18;12.93;;;3.00;;
77625;SDS011;66794;43.764;10.436;2023-08-30T16:15:04;13.43;;;3.20;;
77625;SDS011;66794;43.764;10.436;2023-08-30T16:17:50;6.63;;;2.85;;
77625;SDS011;66794;43.764;10.436;2023-08-30T16:20:36;10.52;;;2.63;;
77625;SDS011;66794;43.764;10.436;2023-08-30T16:23:22;10.73;;;3.00;;
77625;SDS011;66794;43.764;10.436;2023-08-30T16:26:09;9.77;;;3.75;;